Columbus, Ohio
Traffic Map
Current Weather Conditions
Columbus, Ohio
Few Clouds
Few Clouds
30°
Feels Like: 30°
Wind Chill: 30° Ceiling: Unl
Heat Index: 30° Visibility: 10mi
Dew Point: 14° Wind: 0mph
Humidity: 37% Direction: ° ()
Pressure: 30.1in Gusts: 0mph
Raw Report DataKCMH 252251Z 00000KT 10SM FEW065 30/14 A3010 RMK AO2 SLP185 T03000139
Traffic Incident Summary
Active as of:
Severity:
Category:
InformationThere was an issue retrieving the traffic information for this location. Please try a different location or try again shortly.
Advertisements
Track Severe Weather on mobile